Time;durP1;ratioP1;P1;durP2;ratioP2;P2;SDS_P1;SDS_P2;PMS_P1;PMS_P2;Temp;Humidity;BMP_temperature;BMP_pressure;BME280_temperature;BME280_humidity;BME280_pressure;Samples;Min_cycle;Max_cycle;Signal;HPM_P1;HPM_P2
2022/09/16 00:00:05;;;;;;;15.38;3.25;;;;;;;23.82;50.51;98948.94;3145422;28;20052;-65
2022/09/16 00:01:37;;;;;;;14.43;2.97;;;;;;;23.74;50.62;98958.78;3142613;28;20160;-65
2022/09/16 00:03:09;;;;;;;10.25;2.53;;;;;;;23.71;50.73;98954.63;3141850;28;20052;-63
2022/09/16 00:04:41;;;;;;;7.60;2.65;;;;;;;23.70;51.01;98952.16;3145703;28;20098;-63
2022/09/16 00:06:18;;;;;;;14.02;3.60;;;;;;;23.68;50.82;98957.59;3144724;28;20048;-62
2022/09/16 00:07:50;;;;;;;13.90;3.13;;;;;;;23.62;51.02;98948.50;3144563;28;20082;-65
2022/09/16 00:09:22;;;;;;;13.45;2.97;;;;;;;23.59;51.07;98948.03;3143856;28;20520;-64
2022/09/16 00:10:53;;;;;;;7.63;2.72;;;;;;;23.58;50.84;98946.38;3146182;28;20110;-64
2022/09/16 00:12:25;;;;;;;14.68;2.55;;;;;;;23.58;51.07;98941.06;3140583;28;20125;-64
2022/09/16 00:13:58;;;;;;;12.40;2.35;;;;;;;23.58;51.44;98941.06;3146511;28;20044;-64
2022/09/16 00:15:30;;;;;;;10.65;2.75;;;;;;;23.56;51.23;98945.72;3146090;28;20044;-64
2022/09/16 00:17:02;;;;;;;13.98;2.95;;;;;;;23.55;51.17;98938.75;3145585;28;20052;-64
2022/09/16 00:18:34;;;;;;;17.85;5.05;;;;;;;23.54;51.59;98937.91;3146061;28;20052;-64
2022/09/16 00:20:06;;;;;;;14.15;3.33;;;;;;;23.54;51.31;98937.06;3145870;28;20055;-65
2022/09/16 00:21:38;;;;;;;12.07;3.08;;;;;;;23.49;51.27;98921.66;3146707;28;20383;-64
2022/09/16 00:23:09;;;;;;;9.50;3.00;;;;;;;23.54;51.70;98937.06;3146159;28;20040;-64
2022/09/16 00:24:41;;;;;;;12.23;2.97;;;;;;;23.52;51.17;98931.94;3146501;28;20045;-64
2022/09/16 00:26:12;;;;;;;13.50;3.05;;;;;;;23.53;51.75;98936.25;3145921;28;20058;-64
2022/09/16 00:27:43;;;;;;;8.57;2.85;;;;;;;23.52;51.52;98936.44;3146595;28;20079;-64
2022/09/16 00:29:17;;;;;;;10.40;2.45;;;;;;;23.51;51.46;98932.09;3146504;28;20130;-65
2022/09/16 00:30:49;;;;;;;14.45;3.30;;;;;;;23.47;51.34;98936.94;3146096;28;20155;-64
2022/09/16 00:32:20;;;;;;;11.83;3.03;;;;;;;23.43;51.96;98934.81;3146158;28;20143;-64
2022/09/16 00:33:52;;;;;;;13.90;2.80;;;;;;;23.36;51.77;98938.16;3146216;28;20299;-65
2022/09/16 00:35:23;;;;;;;10.52;2.72;;;;;;;23.31;51.75;98932.53;3145659;28;20134;-65
2022/09/16 00:36:54;;;;;;;13.90;2.90;;;;;;;23.30;52.07;98944.16;3146020;28;20483;-65
2022/09/16 00:38:25;;;;;;;15.00;3.70;;;;;;;23.29;52.21;98942.50;3140092;28;20049;-65
2022/09/16 00:39:57;;;;;;;13.90;2.92;;;;;;;23.27;51.99;98946.31;3146028;28;20056;-64
2022/09/16 00:41:32;;;;;;;6.95;2.72;;;;;;;23.22;52.14;98938.03;3146077;28;20045;-65
2022/09/16 00:43:03;;;;;;;14.32;2.90;;;;;;;23.26;52.21;98939.38;3146081;28;20044;-65
2022/09/16 00:44:58;;;;;;;18.33;3.08;;;;;;;23.25;52.42;98943.84;3146404;28;20049;-65
2022/09/16 00:46:36;;;;;;;11.95;2.83;;;;;;;23.24;52.46;98947.50;3145962;28;20098;-65
2022/09/16 00:48:12;;;;;;;13.55;2.92;;;;;;;23.22;52.68;98954.81;3146007;28;20118;-65
2022/09/16 00:49:44;;;;;;;12.65;2.83;;;;;;;23.20;52.33;98943.53;3145946;28;20549;-65
2022/09/16 00:51:19;;;;;;;16.40;3.10;;;;;;;23.19;52.81;98949.84;3146254;28;20052;-65
2022/09/16 00:52:53;;;;;;;15.88;3.20;;;;;;;23.19;52.80;98946.34;3145957;28;20044;-65
2022/09/16 00:54:25;;;;;;;13.60;2.95;;;;;;;23.17;52.88;98941.22;3145835;28;20051;-65
2022/09/16 00:56:00;;;;;;;9.45;2.80;;;;;;;23.16;52.57;98947.53;3145704;28;20543;-66
2022/09/16 00:57:32;;;;;;;11.93;2.75;;;;;;;23.14;52.91;98950.34;3136265;28;20049;-65
2022/09/16 00:59:08;;;;;;;11.23;2.78;;;;;;;23.09;52.67;98939.41;3140587;28;20206;-65
2022/09/16 01:00:41;;;;;;;12.27;3.03;;;;;;;23.15;52.71;98951.19;3142051;28;20494;-65
2022/09/16 01:02:16;;;;;;;16.45;3.55;;;;;;;23.14;52.82;98958.31;3143679;28;20098;-64
2022/09/16 01:03:52;;;;;;;10.13;3.13;;;;;;;23.13;52.92;98951.38;3145804;28;20150;-64
2022/09/16 01:05:26;;;;;;;14.27;3.17;;;;;;;23.14;53.22;98957.50;3146283;28;20552;-65
2022/09/16 01:06:58;;;;;;;9.00;3.13;;;;;;;23.02;53.14;98943.75;3145961;28;20052;-64
2022/09/16 01:08:30;;;;;;;10.25;3.13;;;;;;;23.10;53.46;98962.31;3145758;28;20048;-65
2022/09/16 01:10:02;;;;;;;11.50;2.67;;;;;;;23.05;53.53;98966.50;3145630;28;20135;-65
2022/09/16 01:11:34;;;;;;;10.88;3.45;;;;;;;23.05;53.15;98966.50;3146277;28;20052;-65
2022/09/16 01:13:11;;;;;;;14.98;3.08;;;;;;;23.03;53.75;98971.13;3145903;28;20063;-65
2022/09/16 01:14:54;;;;;;;12.43;3.28;;;;;;;23.00;53.59;98968.81;3145774;28;20045;-64
2022/09/16 01:16:34;;;;;;;11.95;2.65;;;;;;;22.99;53.25;98965.34;3146021;28;20060;-65
2022/09/16 01:18:15;;;;;;;11.43;3.00;;;;;;;22.97;53.51;98959.34;3145716;28;20056;-65
2022/09/16 01:20:09;;;;;;;16.10;3.05;;;;;;;22.96;53.60;98963.03;3145790;28;20052;-65
2022/09/16 01:21:45;;;;;;;12.10;3.40;;;;;;;22.92;53.82;98967.81;3145705;28;20052;-65
2022/09/16 01:23:45;;;;;;;13.70;3.72;;;;;;;22.97;53.93;98977.13;3145839;28;20084;-65
2022/09/16 01:25:27;;;;;;;13.63;3.40;;;;;;;22.87;53.60;98964.81;3144601;28;20056;-65
2022/09/16 01:27:28;;;;;;;13.80;4.22;;;;;;;22.90;53.74;98975.09;3145575;28;20437;-64
2022/09/16 01:29:22;;;;;;;9.23;2.85;;;;;;;22.88;54.00;98978.94;3145702;28;20048;-64
2022/09/16 01:31:08;;;;;;;15.55;5.05;;;;;;;22.88;54.04;98976.28;3145367;28;20053;-64
2022/09/16 01:32:48;;;;;;;15.25;3.28;;;;;;;22.86;53.85;98964.97;3142231;28;20052;-63
2022/09/16 01:34:26;;;;;;;13.60;4.30;;;;;;;22.85;53.85;98966.81;3145481;28;20382;-63
2022/09/16 01:36:08;;;;;;;18.75;3.50;;;;;;;22.77;54.36;98955.38;3145107;28;20059;-63
2022/09/16 01:37:47;;;;;;;17.40;4.63;;;;;;;22.82;54.28;98971.63;3142186;28;20044;-63
2022/09/16 01:39:29;;;;;;;26.30;4.25;;;;;;;22.80;54.42;98960.34;3145463;28;20049;-63
2022/09/16 01:41:09;;;;;;;16.55;4.05;;;;;;;22.80;54.57;98976.28;3145288;28;20053;-64
2022/09/16 01:42:53;;;;;;;15.55;3.70;;;;;;;22.77;54.29;98972.13;3145508;28;20113;-64
2022/09/16 01:44:28;;;;;;;;;;;;;;;22.67;54.68;98967.00;3145549;28;20051;-64
2022/09/16 01:46:09;;;;;;;8.25;2.85;;;;;;;22.65;54.34;98958.38;3145134;28;19944;-63
2022/09/16 01:47:50;;;;;;;13.20;3.58;;;;;;;22.64;54.60;98962.03;3144387;28;20117;-64
2022/09/16 01:49:34;;;;;;;9.82;3.05;;;;;;;22.62;54.93;98966.66;3145526;28;20056;-63
2022/09/16 01:51:11;;;;;;;;;;;;;;;22.55;54.72;98963.03;3145936;28;20052;-64
2022/09/16 01:52:49;;;;;;;12.45;2.90;;;;;;;22.53;54.87;98965.00;3145220;28;19998;-63
2022/09/16 01:54:29;;;;;;;17.23;3.58;;;;;;;22.54;54.83;98957.88;3145191;28;20074;-63
2022/09/16 01:56:06;;;;;;;14.93;3.72;;;;;;;22.54;54.79;98963.19;3144737;28;20048;-63
2022/09/16 01:57:45;;;;;;;13.93;3.05;;;;;;;22.52;54.69;98952.75;3145024;28;20083;-63
2022/09/16 01:59:21;;;;;;;16.42;3.40;;;;;;;22.53;54.85;98958.88;3145323;28;20511;-64
2022/09/16 02:01:00;;;;;;;12.98;3.25;;;;;;;22.45;54.96;98947.28;3143146;28;20044;-63
2022/09/16 02:02:39;;;;;;;12.15;3.90;;;;;;;22.49;54.83;98951.25;3144620;28;20505;-64
2022/09/16 02:04:18;;;;;;;12.07;3.80;;;;;;;22.49;54.63;98953.09;3143936;28;20044;-64
2022/09/16 02:05:53;;;;;;;12.43;3.28;;;;;;;22.50;54.53;98949.44;3144028;28;20060;-64
2022/09/16 02:07:28;;;;;;;11.05;3.05;;;;;;;22.52;55.01;98957.22;3144219;28;20060;-63
2022/09/16 02:09:04;;;;;;;9.25;3.33;;;;;;;22.53;54.80;98958.88;3144262;28;20063;-63
2022/09/16 02:10:41;;;;;;;8.93;2.83;;;;;;;22.52;54.76;98958.06;3143433;28;20704;-63
2022/09/16 02:12:18;;;;;;;10.55;2.70;;;;;;;22.54;54.49;98957.88;3144466;28;20055;-63
2022/09/16 02:13:55;;;;;;;15.10;3.50;;;;;;;22.53;54.74;98957.06;3143798;28;20052;-63
2022/09/16 02:15:29;;;;;;;9.55;2.78;;;;;;;22.54;54.58;98958.72;3144051;28;20052;-64
2022/09/16 02:17:04;;;;;;;19.52;4.22;;;;;;;22.55;54.54;98962.22;3143977;28;20056;-64
2022/09/16 02:18:41;;;;;;;19.27;3.28;;;;;;;22.55;54.50;98957.72;3144185;28;20045;-63
2022/09/16 02:20:18;;;;;;;12.68;3.72;;;;;;;22.55;54.71;98962.22;3144167;28;20056;-64
2022/09/16 02:21:53;;;;;;;30.33;4.05;;;;;;;22.53;54.40;98972.16;3141498;28;20169;-63
2022/09/16 02:23:28;;;;;;;13.48;3.53;;;;;;;22.50;54.55;98962.69;3144686;28;20044;-64
2022/09/16 02:25:02;;;;;;;13.48;3.35;;;;;;;22.52;54.55;98970.50;3147779;28;20040;-64
2022/09/16 02:26:40;;;;;;;12.18;2.78;;;;;;;22.50;54.57;98970.66;3144262;28;21721;-64
2022/09/16 02:28:18;;;;;;;11.57;3.67;;;;;;;22.45;54.79;98967.66;3143981;28;20052;-64
2022/09/16 02:29:53;;;;;;;15.15;2.85;;;;;;;22.46;54.41;98967.50;3144099;28;20052;-65
2022/09/16 02:31:30;;;;;;;14.35;2.67;;;;;;;22.46;54.21;98975.47;3144343;28;20045;-64
2022/09/16 02:33:07;;;;;;;10.52;3.33;;;;;;;22.46;54.09;98980.78;3144159;28;20098;-65
2022/09/16 02:34:44;;;;;;;9.75;3.10;;;;;;;22.47;54.18;98978.94;3143612;28;20511;-64
2022/09/16 02:36:22;;;;;;;10.65;3.13;;;;;;;22.47;54.04;98981.59;3143880;28;20057;-64
2022/09/16 02:37:58;;;;;;;14.13;2.67;;;;;;;22.46;53.73;98986.06;3143986;28;20056;-64
2022/09/16 02:39:36;;;;;;;14.90;3.53;;;;;;;22.47;53.84;98981.59;3144152;28;20131;-64
2022/09/16 02:41:13;;;;;;;11.52;2.90;;;;;;;22.47;53.72;98982.41;3144773;28;20040;-64
2022/09/16 02:42:45;;;;;;;12.30;2.80;;;;;;;22.47;53.44;98987.72;3144699;28;20083;-64
2022/09/16 02:44:17;;;;;;;12.18;3.00;;;;;;;22.48;53.76;98993.88;3144774;28;20050;-64
2022/09/16 02:45:55;;;;;;;15.82;3.10;;;;;;;22.45;53.56;99000.34;3144419;28;20055;-65
2022/09/16 02:47:31;;;;;;;11.52;2.90;;;;;;;22.44;53.65;99003.16;3145229;28;20048;-64
2022/09/16 02:49:13;;;;;;;10.63;2.63;;;;;;;22.42;53.65;99007.78;3144586;28;20060;-64
2022/09/16 02:50:53;;;;;;;15.25;3.03;;;;;;;22.39;53.97;99006.31;3144782;28;20052;-64
2022/09/16 02:52:36;;;;;;;13.98;3.05;;;;;;;22.39;53.95;99002.81;3144582;28;20044;-65
2022/09/16 02:54:19;;;;;;;18.35;3.67;;;;;;;22.31;54.01;98995.69;3142271;28;20582;-64
2022/09/16 02:55:56;;;;;;;13.25;2.83;;;;;;;22.35;53.80;99002.31;3144886;28;20052;-64
2022/09/16 02:57:28;;;;;;;13.50;3.22;;;;;;;22.35;53.91;99009.44;3143093;28;20114;-64
2022/09/16 02:59:02;;;;;;;12.73;3.50;;;;;;;22.35;53.73;99012.91;3144691;28;20057;-64
2022/09/16 03:00:41;;;;;;;13.80;3.25;;;;;;;22.35;54.06;99009.44;3144340;28;20147;-64
2022/09/16 03:02:13;;;;;;;16.77;3.38;;;;;;;22.34;53.93;99013.94;3144733;28;20572;-64
2022/09/16 03:03:45;;;;;;;20.17;3.78;;;;;;;22.33;53.84;99006.97;3144679;28;20102;-64
2022/09/16 03:05:15;;;;;;;15.63;3.90;;;;;;;22.34;53.98;99000.66;3144775;28;20040;-65
2022/09/16 03:06:49;;;;;;;11.85;3.03;;;;;;;22.34;54.01;98999.84;3144471;28;20052;-64
2022/09/16 03:08:20;;;;;;;11.75;3.45;;;;;;;22.32;53.79;98993.84;3144417;28;20516;-63
2022/09/16 03:09:52;;;;;;;7.25;2.33;;;;;;;22.27;53.90;98991.69;3144583;28;20045;-63
2022/09/16 03:11:37;;;;;;;15.73;3.42;;;;;;;22.20;54.05;98988.03;3144391;28;20106;-64
2022/09/16 03:13:17;;;;;;;16.15;3.40;;;;;;;22.15;53.90;98985.00;3144793;28;20087;-63
2022/09/16 03:15:14;;;;;;;8.40;3.08;;;;;;;22.12;54.20;98991.47;3144483;28;20048;-64
2022/09/16 03:16:56;;;;;;;15.25;3.05;;;;;;;22.11;54.10;98991.66;3144550;28;20484;-63
2022/09/16 03:18:50;;;;;;;9.48;3.25;;;;;;;22.11;54.25;99002.25;3144328;28;20134;-63
2022/09/16 03:20:34;;;;;;;9.73;3.17;;;;;;;22.10;54.13;99004.06;3143978;28;20513;-65
2022/09/16 03:22:18;;;;;;;8.57;3.35;;;;;;;22.09;54.12;99002.41;3144354;28;20048;-64
2022/09/16 03:23:56;;;;;;;;;;;;;;;22.06;54.04;98992.13;3146233;28;20079;-64
2022/09/16 03:25:38;;;;;;;10.48;3.80;;;;;;;22.05;54.40;98990.47;3145402;28;19943;-64
2022/09/16 03:27:13;;;;;;;8.90;3.30;;;;;;;22.04;53.90;98989.66;3144655;28;20051;-64
2022/09/16 03:28:54;;;;;;;15.52;3.25;;;;;;;22.00;54.28;98983.00;3144453;28;20494;-64
2022/09/16 03:30:26;;;;;;;12.57;3.40;;;;;;;22.01;54.55;98986.50;3143971;28;20139;-63
2022/09/16 03:32:06;;;;;;;8.60;3.17;;;;;;;21.99;54.58;98985.81;3144271;28;20044;-64
2022/09/16 03:33:47;;;;;;;17.50;3.70;;;;;;;21.95;54.64;98979.19;3144334;28;20048;-64
2022/09/16 03:35:26;;;;;;;17.50;3.92;;;;;;;21.93;54.86;98989.13;3144508;28;20432;-64
2022/09/16 03:37:02;;;;;;;13.68;3.55;;;;;;;21.85;55.09;98970.53;3144213;28;20067;-64
2022/09/16 03:38:36;;;;;;;11.98;3.53;;;;;;;21.92;54.94;98979.50;3143971;28;20131;-64
2022/09/16 03:40:11;;;;;;;14.32;3.90;;;;;;;21.91;55.31;98978.66;3144487;28;20052;-64
2022/09/16 03:41:45;;;;;;;18.88;3.65;;;;;;;21.88;55.15;98986.13;3144443;28;20060;-64
2022/09/16 03:43:17;;;;;;;;;;;;;;;21.85;55.19;98995.22;3144866;28;20041;-64
2022/09/16 03:44:48;;;;;;;14.88;4.28;;;;;;;21.83;55.13;98994.56;3144290;28;19925;-63
2022/09/16 03:46:20;;;;;;;11.55;3.78;;;;;;;21.83;55.43;98993.72;3143956;28;20060;-64
2022/09/16 03:47:53;;;;;;;18.60;4.03;;;;;;;21.82;55.44;98987.59;3144415;28;20049;-63
2022/09/16 03:49:24;;;;;;;18.27;4.68;;;;;;;21.80;55.46;98990.41;3144010;28;20048;-63
2022/09/16 03:50:56;;;;;;;22.55;4.88;;;;;;;21.80;55.71;98982.47;3144067;28;20051;-63
2022/09/16 03:52:26;;;;;;;15.52;4.57;;;;;;;21.81;55.55;98981.47;3144271;28;20547;-63
2022/09/16 03:54:00;;;;;;;16.55;3.95;;;;;;;21.81;55.46;98981.47;3144070;28;20049;-64
2022/09/16 03:55:31;;;;;;;24.65;3.85;;;;;;;21.80;55.71;98979.00;3144096;28;20540;-64
2022/09/16 03:57:04;;;;;;;20.10;4.15;;;;;;;21.77;55.72;98958.94;3144273;28;20070;-64
2022/09/16 03:58:35;;;;;;;24.23;6.03;;;;;;;21.69;56.00;98960.72;3144167;28;20045;-63
2022/09/16 04:00:09;;;;;;;18.08;4.65;;;;;;;21.63;56.24;98964.03;3144203;28;20051;-63
2022/09/16 04:01:40;;;;;;;15.43;4.97;;;;;;;21.60;56.33;98957.22;3137289;28;20098;-61
2022/09/16 04:03:12;;;;;;;23.10;5.18;;;;;;;21.58;56.58;98959.19;3143795;28;20102;-62
2022/09/16 04:04:43;;;;;;;23.63;4.93;;;;;;;21.56;56.88;98962.00;3144076;28;20449;-64
2022/09/16 04:06:15;;;;;;;21.38;5.03;;;;;;;21.56;56.95;98964.66;3143931;28;20052;-61
2022/09/16 04:07:48;;;;;;;30.30;5.40;;;;;;;21.56;56.98;98962.00;3144128;28;20594;-62
2022/09/16 04:09:22;;;;;;;33.72;6.25;;;;;;;21.57;56.97;98971.59;3144462;28;20122;-61
2022/09/16 04:10:54;;;;;;;;;;;;;;;21.53;56.67;98967.63;3145377;28;20048;-64
2022/09/16 04:12:26;;;;;;;25.33;5.57;;;;;;;21.53;56.99;98978.22;3146025;28;19964;-62
2022/09/16 04:13:58;;;;;;;19.52;5.03;;;;;;;21.46;56.88;98955.19;3146451;28;20072;-62
2022/09/16 04:15:30;;;;;;;16.05;4.40;;;;;;;21.55;57.13;98984.19;3146433;28;20090;-60
2022/09/16 04:17:03;;;;;;;19.65;5.38;;;;;;;21.55;57.04;98975.41;3146523;28;20049;-61
2022/09/16 04:18:34;;;;;;;14.13;4.33;;;;;;;21.47;57.09;98970.88;3146328;28;20060;-61
2022/09/16 04:20:07;;;;;;;20.60;4.68;;;;;;;21.49;57.42;98982.16;3142320;28;20303;-60
2022/09/16 04:21:39;;;;;;;26.35;5.65;;;;;;;21.48;57.42;98983.16;3138981;28;20083;-61
2022/09/16 04:23:11;;;;;;;24.67;7.22;;;;;;;21.45;57.41;98990.59;3141025;28;20114;-62
2022/09/16 04:24:44;;;;;;;26.92;5.93;;;;;;;21.42;57.44;98997.03;3141408;28;20445;-62
2022/09/16 04:26:15;;;;;;;;;;;;;;;21.39;57.54;98994.72;3141162;28;20044;-59
2022/09/16 04:27:47;;;;;;;33.53;6.72;;;;;;;21.39;57.55;98992.06;3141111;28;20181;-60
2022/09/16 04:29:19;;;;;;;34.08;6.32;;;;;;;21.41;57.58;98982.13;3140963;28;20526;-60
2022/09/16 04:30:51;;;;;;;20.90;5.68;;;;;;;21.44;57.54;98980.97;3141189;28;20080;-59
2022/09/16 04:32:24;;;;;;;25.50;5.30;;;;;;;21.46;57.44;98989.59;3140737;28;20184;-59
2022/09/16 04:33:55;;;;;;;24.15;5.85;;;;;;;21.48;57.34;98987.63;3140756;28;20060;-59
2022/09/16 04:35:27;;;;;;;20.63;5.82;;;;;;;21.48;57.49;98992.94;3141034;28;20670;-59
2022/09/16 04:36:57;;;;;;;40.45;6.78;;;;;;;21.47;57.54;98994.72;3140916;28;20163;-61
2022/09/16 04:38:29;;;;;;;32.35;6.70;;;;;;;21.47;57.64;98988.59;3140403;28;20493;-59
2022/09/16 04:40:04;;;;;;;27.02;5.88;;;;;;;21.49;57.83;98992.75;3141034;28;20052;-62
2022/09/16 04:41:36;;;;;;;24.70;5.55;;;;;;;21.43;58.09;98980.16;3138742;28;20671;-63
2022/09/16 04:43:08;;;;;;;26.73;5.78;;;;;;;21.47;57.96;98983.31;3139562;28;20048;-63
2022/09/16 04:44:40;;;;;;;23.27;6.00;;;;;;;21.49;57.97;98986.63;3139843;28;20057;-63
2022/09/16 04:46:13;;;;;;;36.20;6.32;;;;;;;21.52;57.86;98991.63;3135137;28;20052;-63
2022/09/16 04:47:45;;;;;;;23.95;5.40;;;;;;;21.52;58.14;98991.63;3139306;28;20139;-63
2022/09/16 04:49:17;;;;;;;27.92;5.78;;;;;;;21.53;57.91;98993.28;3139357;28;20052;-63
2022/09/16 04:50:48;;;;;;;26.33;5.75;;;;;;;21.57;58.02;99002.56;3138939;28;20256;-63
2022/09/16 04:52:20;;;;;;;32.25;6.40;;;;;;;21.61;57.97;98992.47;3139003;28;20641;-63
2022/09/16 04:53:51;;;;;;;35.38;6.38;;;;;;;21.64;57.44;98982.38;3139099;28;20278;-63
2022/09/16 04:55:24;;;;;;;17.88;5.88;;;;;;;21.69;57.58;98987.22;3139310;28;20466;-63
2022/09/16 04:56:57;;;;;;;41.78;6.53;;;;;;;21.65;57.64;98969.97;3139603;28;20551;-63
2022/09/16 04:58:29;;;;;;;29.92;6.60;;;;;;;21.73;57.68;98991.19;3139687;28;20044;-63
2022/09/16 05:00:01;;;;;;;27.33;6.10;;;;;;;21.79;57.66;98993.22;3139449;28;20592;-63
2022/09/16 05:01:34;;;;;;;36.05;6.15;;;;;;;21.80;57.67;98998.38;3138521;28;20755;-62
2022/09/16 05:03:07;;;;;;;24.33;5.82;;;;;;;21.82;57.56;99000.84;3135142;28;20105;-63
2022/09/16 05:04:39;;;;;;;22.27;7.00;;;;;;;21.85;57.60;99003.16;3136262;28;20055;-62
2022/09/16 05:06:12;;;;;;;22.27;6.00;;;;;;;21.90;57.24;98997.41;3133675;28;20510;-63
2022/09/16 05:07:44;;;;;;;35.22;6.68;;;;;;;21.94;57.46;98999.53;3138213;28;20079;-63
2022/09/16 05:09:16;;;;;;;28.65;6.57;;;;;;;21.98;57.22;99016.81;3140635;28;20055;-63
2022/09/16 05:10:48;;;;;;;28.67;5.35;;;;;;;22.02;57.37;99015.47;3139634;28;20056;-62
2022/09/16 05:12:21;;;;;;;31.02;6.13;;;;;;;22.06;57.25;99015.16;3140307;28;20533;-62
2022/09/16 05:13:54;;;;;;;26.63;6.57;;;;;;;22.11;57.02;99018.16;3140305;28;20131;-62
2022/09/16 05:15:26;;;;;;;17.67;5.78;;;;;;;22.14;56.43;99017.84;3137483;28;20048;-63
2022/09/16 05:16:58;;;;;;;19.75;5.00;;;;;;;22.16;56.40;99013.22;3140064;28;20512;-62
2022/09/16 05:18:30;;;;;;;19.55;4.85;;;;;;;22.18;55.73;99017.38;3140354;28;20053;-62
2022/09/16 05:20:03;;;;;;;23.35;4.38;;;;;;;22.21;55.42;99013.56;3139914;28;20052;-62
2022/09/16 05:21:37;;;;;;;13.38;4.38;;;;;;;22.25;55.17;99009.59;3139820;28;20048;-63
2022/09/16 05:23:09;;;;;;;18.80;3.95;;;;;;;22.29;55.21;99010.09;3140188;28;20048;-64
2022/09/16 05:24:43;;;;;;;20.80;5.40;;;;;;;22.32;54.89;99010.59;3140371;28;20052;-63
2022/09/16 05:26:18;;;;;;;14.38;3.65;;;;;;;22.34;54.50;98992.72;3140033;28;20045;-63
2022/09/16 05:27:50;;;;;;;23.77;4.35;;;;;;;22.36;53.90;98993.38;3139998;28;20082;-63
2022/09/16 05:29:21;;;;;;;14.70;4.10;;;;;;;22.40;53.73;98991.22;3140372;28;20079;-63
2022/09/16 05:30:53;;;;;;;18.35;4.53;;;;;;;22.43;53.94;98990.88;3140249;28;20285;-63
2022/09/16 05:32:26;;;;;;;17.13;4.38;;;;;;;22.47;53.85;98985.06;3139332;28;20057;-63
2022/09/16 05:34:00;;;;;;;31.00;4.90;;;;;;;22.51;53.91;98988.25;3139703;28;20105;-63
2022/09/16 05:35:32;;;;;;;18.15;4.38;;;;;;;22.55;53.44;98973.66;3139451;28;20314;-63
2022/09/16 05:37:04;;;;;;;23.73;4.60;;;;;;;22.60;53.11;98983.78;3139952;28;20062;-60
2022/09/16 05:38:35;;;;;;;24.20;5.43;;;;;;;22.61;53.17;98986.25;3139890;28;20315;-62
2022/09/16 05:40:08;;;;;;;16.25;3.78;;;;;;;;;;3139904;28;20193;-60
2022/09/16 05:41:41;;;;;;;29.00;8.20;;;;;;;22.71;52.91;98986.06;3139799;28;20052;-61
2022/09/16 05:43:13;;;;;;;;;;;;;;;22.76;52.64;98982.94;3133817;28;20793;-60
2022/09/16 05:44:45;;;;;;;23.27;7.50;;;;;;;22.83;52.73;98982.06;3139795;28;19939;-60
2022/09/16 05:46:19;;;;;;;26.70;5.13;;;;;;;22.92;52.64;98988.19;3138174;28;20139;-60
2022/09/16 05:47:51;;;;;;;20.50;4.22;;;;;;;22.98;52.19;98979.59;3139787;28;20145;-60
2022/09/16 05:49:23;;;;;;;16.17;4.30;;;;;;;23.06;52.02;98976.94;3140162;28;20063;-60
2022/09/16 05:50:57;;;;;;;30.52;5.82;;;;;;;23.18;51.70;98972.09;3140052;28;20528;-60
2022/09/16 05:52:29;;;;;;;19.05;4.53;;;;;;;23.28;51.36;98978.06;3139579;28;20394;-60
2022/09/16 05:54:01;;;;;;;21.98;4.40;;;;;;;23.39;50.92;98977.66;3139899;28;20048;-61
2022/09/16 05:55:32;;;;;;;24.27;4.43;;;;;;;23.48;50.72;98980.28;3133051;28;20048;-61
2022/09/16 05:57:06;;;;;;;15.48;4.05;;;;;;;23.52;50.27;98976.31;3139720;28;20044;-60
2022/09/16 05:58:38;;;;;;;24.95;4.75;;;;;;;23.59;49.88;98977.25;3139995;28;20056;-59
2022/09/16 06:00:11;;;;;;;21.73;5.15;;;;;;;23.69;50.04;98972.53;3139780;28;20194;-59
2022/09/16 06:01:44;;;;;;;17.35;4.22;;;;;;;23.78;49.90;98968.91;3137231;28;20105;-61
2022/09/16 06:03:16;;;;;;;19.60;5.05;;;;;;;23.90;49.92;98976.47;3140094;28;20052;-60
2022/09/16 06:04:48;;;;;;;35.60;5.72;;;;;;;23.99;50.58;98967.47;3139905;28;20594;-61
2022/09/16 06:06:23;;;;;;;22.85;5.30;;;;;;;24.10;50.61;98971.53;3139567;28;20048;-61
2022/09/16 06:07:56;;;;;;;35.95;5.95;;;;;;;24.18;50.67;98972.31;3139547;28;20060;-62
2022/09/16 06:09:30;;;;;;;29.95;6.63;;;;;;;24.26;51.03;98966.94;3136895;28;20075;-61
2022/09/16 06:11:02;;;;;;;30.88;5.40;;;;;;;24.35;50.99;98970.38;3139561;28;20048;-62
2022/09/16 06:12:36;;;;;;;23.77;6.17;;;;;;;24.43;50.75;98961.50;3139477;28;20528;-63
2022/09/16 06:14:07;;;;;;;;;;;;;;;24.49;51.13;98969.63;3139836;28;20044;-63
2022/09/16 06:15:38;;;;;;;35.70;5.45;;;;;;;24.57;51.21;98970.53;3139407;28;19974;-63
2022/09/16 06:17:20;;;;;;;31.58;6.55;;;;;;;24.62;50.85;98969.00;3141662;28;20084;-62
2022/09/16 06:18:52;;;;;;;30.65;6.38;;;;;;;24.64;51.42;98974.97;3143961;28;20040;-63
2022/09/16 06:20:24;;;;;;;29.60;9.35;;;;;;;24.58;51.76;98970.38;3144829;28;20060;-63
2022/09/16 06:21:56;;;;;;;36.85;8.40;;;;;;;24.54;51.39;98962.91;3144208;28;20416;-62
2022/09/16 06:23:27;;;;;;;18.35;6.95;;;;;;;24.47;51.61;98965.47;3144575;28;20056;-62
2022/09/16 06:24:58;;;;;;;21.95;5.43;;;;;;;24.43;51.45;98959.69;3146428;28;20044;-62
2022/09/16 06:26:30;;;;;;;27.67;5.85;;;;;;;24.42;51.48;98967.81;3144620;28;20051;-62
2022/09/16 06:28:04;;;;;;;36.50;6.40;;;;;;;24.40;51.45;98965.34;3144763;28;20133;-62
2022/09/16 06:29:36;;;;;;;34.75;5.97;;;;;;;24.43;51.63;98969.47;3144593;28;20048;-62
2022/09/16 06:31:10;;;;;;;19.17;5.63;;;;;;;24.47;52.09;98968.13;3144385;28;20447;-62
2022/09/16 06:32:42;;;;;;;36.67;6.28;;;;;;;24.56;51.47;98969.72;3144779;28;20049;-63
2022/09/16 06:34:17;;;;;;;32.50;6.20;;;;;;;24.64;51.18;98977.66;3144212;28;20102;-63
2022/09/16 06:35:50;;;;;;;22.05;6.45;;;;;;;24.74;51.10;98972.88;3144822;28;20060;-63
2022/09/16 06:37:22;;;;;;;34.78;5.53;;;;;;;24.81;51.40;98974.81;3144907;28;20137;-63
2022/09/16 06:38:54;;;;;;;30.20;6.15;;;;;;;24.90;50.80;98973.72;3144556;28;20523;-62
2022/09/16 06:40:25;;;;;;;20.67;5.60;;;;;;;24.98;51.18;98978.97;3144989;28;20056;-61
2022/09/16 06:41:57;;;;;;;28.42;7.60;;;;;;;25.04;50.79;98975.59;3144801;28;20053;-62
2022/09/16 06:43:31;;;;;;;34.47;7.25;;;;;;;25.13;50.22;98968.34;3144569;28;20056;-62
2022/09/16 06:45:03;;;;;;;20.85;5.28;;;;;;;25.22;50.55;98958.47;3143382;28;20520;-62
2022/09/16 06:46:35;;;;;;;22.73;5.28;;;;;;;25.37;49.69;98960.09;3143312;28;20128;-61
2022/09/16 06:48:07;;;;;;;21.70;5.28;;;;;;;25.51;49.83;98958.44;3143607;28;20056;-61
2022/09/16 06:49:39;;;;;;;34.67;6.07;;;;;;;25.67;49.00;98948.56;3143583;28;20048;-61
2022/09/16 06:51:13;;;;;;;20.42;4.65;;;;;;;25.81;48.62;98951.19;3143661;28;20817;-61
2022/09/16 06:52:45;;;;;;;19.17;4.50;;;;;;;25.91;47.96;98948.28;3143350;28;20053;-61
2022/09/16 06:54:17;;;;;;;17.08;4.22;;;;;;;26.07;47.66;98949.88;3143203;28;20057;-61
2022/09/16 06:55:49;;;;;;;26.00;4.88;;;;;;;26.20;47.11;98966.00;3143690;28;20045;-61
2022/09/16 06:57:22;;;;;;;23.08;5.95;;;;;;;26.36;47.20;98966.78;3143662;28;20457;-61
2022/09/16 06:58:56;;;;;;;28.92;5.63;;;;;;;26.58;46.67;98964.94;3143415;28;20182;-61
2022/09/16 07:00:28;;;;;;;29.92;5.40;;;;;;;26.76;45.71;98958.09;3143469;28;20535;-61
2022/09/16 07:02:01;;;;;;;25.75;5.05;;;;;;;26.95;45.37;98967.28;3144756;28;20057;-61
2022/09/16 07:03:33;;;;;;;26.42;6.00;;;;;;;27.09;44.74;98967.34;3138968;28;20109;-61
2022/09/16 07:05:06;;;;;;;35.35;5.28;;;;;;;27.27;44.22;98961.53;3143932;28;20052;-61
2022/09/16 07:06:38;;;;;;;27.85;7.30;;;;;;;27.43;44.30;98971.91;3144145;28;20696;-62
2022/09/16 07:08:10;;;;;;;40.35;5.88;;;;;;;27.65;43.43;98962.75;3143560;28;20517;-62
2022/09/16 07:09:42;;;;;;;26.23;5.30;;;;;;;27.85;43.16;98956.66;3143681;28;20137;-62
2022/09/16 07:11:15;;;;;;;26.13;5.35;;;;;;;28.02;42.98;98973.19;3143215;28;20113;-62
2022/09/16 07:12:47;;;;;;;22.00;4.82;;;;;;;28.17;42.84;98973.84;3143417;28;20506;-62
2022/09/16 07:14:21;;;;;;;32.05;5.50;;;;;;;28.41;42.20;98979.66;3143302;28;20048;-62
2022/09/16 07:15:53;;;;;;;20.85;4.43;;;;;;;28.53;41.82;98972.69;3140262;28;20441;-62
2022/09/16 07:17:26;;;;;;;28.67;4.10;;;;;;;28.65;41.11;98978.25;3143326;28;20052;-62
2022/09/16 07:18:59;;;;;;;24.33;4.18;;;;;;;28.76;40.88;98981.13;3143435;28;20764;-63
2022/09/16 07:20:30;;;;;;;12.75;4.05;;;;;;;28.82;40.44;98978.66;3143339;28;20052;-62
2022/09/16 07:22:02;;;;;;;14.23;3.65;;;;;;;28.91;40.53;98988.13;3143148;28;20612;-63